This is the latest recevied weather packets stored in our database for station/object 9D9-WX. If no packets are shown the sender has not sent any weather packets the latest 10 day(s).
| Time | Temp. | Humidity | Pressure | Rain* | Wind** | Luminosity | Snow |
|---|---|---|---|---|---|---|---|
| 1777342513 | 15.56° C | 82% | 976.3 hPa | 0 mm | - | - | - |
| 1777341628 | 15.56° C | 82% | 976.3 hPa | 0 mm | - | - | - |
| 1777340713 | 16.11° C | 86% | 975.8 hPa | 0 mm | - | - | - |
| 1777339821 | 16.11° C | 86% | 975.8 hPa | 0 mm | - | - | - |
| 1777338913 | 15.56° C | 86% | 975.8 hPa | 0 mm | - | - | - |
| 1777338029 | 15.56° C | 86% | 975.8 hPa | 0 mm | - | - | - |
| 1777337109 | 16.11° C | 82% | 978.4 hPa | 0 mm | - | - | - |
| 1777336220 | 16.11° C | 86% | 977.6 hPa | 0 mm | - | - | - |
| 1777335313 | 16.11° C | 86% | 977.6 hPa | 0 mm | - | - | - |
| 1777334432 | 16.11° C | 86% | 977.6 hPa | 0 mm | - | - | - |
| 1777333513 | 16.11° C | 84% | 978.1 hPa | 0 mm | - | - | - |
| 1777332625 | 17.22° C | 86% | 977.3 hPa | 0 mm | - | - | - |
| 1777331713 | 17.22° C | 86% | 977.3 hPa | 0 mm | - | - | - |
| 1777330829 | 16.67° C | 86% | 977.3 hPa | 0 mm | - | - | - |
| 1777329912 | 16.67° C | 84% | 977.9 hPa | 0 mm | - | - | - |
| 1777329025 | 16.67° C | 86% | 979.1 hPa | 0 mm | - | - | - |
| 1777328110 | 16.67° C | 86% | 979.2 hPa | 0.25 mm | - | - | - |
| 1777327228 | 16.11° C | 86% | 979.2 hPa | 0.25 mm | - | - | - |
| 1777326312 | 15.56° C | 86% | 979.9 hPa | 3.3 mm | - | - | - |
| 1777325424 | 16.67° C | 73% | 980.7 hPa | 1.27 mm | - | - | - |
| 1777324512 | 16.67° C | 73% | 980.7 hPa | 1.27 mm | - | - | - |
| 1777323628 | 17.22° C | 73% | 980.7 hPa | 1.27 mm | - | - | - |
| 1777322711 | 17.78° C | 58% | 980.8 hPa | 0.25 mm | - | - | - |
| 1777321821 | 17.78° C | 64% | 982.1 hPa | 0.25 mm | - | - | - |
| 1777320911 | 20° C | 64% | 982 hPa | 0 mm | - | - | - |
* Rain latest hour (hover to see other rain measurements)
** Current wind speed in m/s (hover to see current wind gust speed)